sensor_id;sensor_type;location;lat;lon;timestamp;P1;durP1;ratioP1;P2;durP2;ratioP2
22282;SDS011;11310;51.528;21.204;2023-03-23T00:00:21;27.95;;;13.48;;
22282;SDS011;11310;51.528;21.204;2023-03-23T00:02:49;26.75;;;11.82;;
22282;SDS011;11310;51.528;21.204;2023-03-23T00:05:17;25.17;;;11.93;;
22282;SDS011;11310;51.528;21.204;2023-03-23T00:07:45;26.30;;;12.27;;
22282;SDS011;11310;51.528;21.204;2023-03-23T00:10:17;28.40;;;12.30;;
22282;SDS011;11310;51.528;21.204;2023-03-23T00:12:45;30.65;;;12.05;;
22282;SDS011;11310;51.528;21.204;2023-03-23T00:15:15;28.05;;;12.40;;
22282;SDS011;11310;51.528;21.204;2023-03-23T00:17:42;28.77;;;12.68;;
22282;SDS011;11310;51.528;21.204;2023-03-23T00:20:10;30.10;;;12.77;;
22282;SDS011;11310;51.528;21.204;2023-03-23T00:22:40;26.65;;;12.27;;
22282;SDS011;11310;51.528;21.204;2023-03-23T00:25:08;25.92;;;12.10;;
22282;SDS011;11310;51.528;21.204;2023-03-23T00:27:36;26.33;;;11.85;;
22282;SDS011;11310;51.528;21.204;2023-03-23T00:30:04;25.63;;;11.30;;
22282;SDS011;11310;51.528;21.204;2023-03-23T00:32:32;20.95;;;10.95;;
22282;SDS011;11310;51.528;21.204;2023-03-23T00:35:01;21.60;;;10.60;;
22282;SDS011;11310;51.528;21.204;2023-03-23T00:37:29;20.15;;;10.07;;
22282;SDS011;11310;51.528;21.204;2023-03-23T00:39:58;25.75;;;11.55;;
22282;SDS011;11310;51.528;21.204;2023-03-23T00:42:26;23.77;;;10.93;;
22282;SDS011;11310;51.528;21.204;2023-03-23T00:44:54;25.08;;;11.05;;
22282;SDS011;11310;51.528;21.204;2023-03-23T00:47:26;23.65;;;11.25;;
22282;SDS011;11310;51.528;21.204;2023-03-23T00:49:53;20.67;;;11.60;;
22282;SDS011;11310;51.528;21.204;2023-03-23T00:52:22;20.88;;;10.30;;
22282;SDS011;11310;51.528;21.204;2023-03-23T00:54:50;24.17;;;11.00;;
22282;SDS011;11310;51.528;21.204;2023-03-23T00:57:19;23.90;;;10.95;;
22282;SDS011;11310;51.528;21.204;2023-03-23T00:59:50;20.08;;;10.00;;
22282;SDS011;11310;51.528;21.204;2023-03-23T01:02:17;19.58;;;10.70;;
22282;SDS011;11310;51.528;21.204;2023-03-23T01:04:45;22.27;;;10.68;;
22282;SDS011;11310;51.528;21.204;2023-03-23T01:07:17;21.80;;;10.10;;
22282;SDS011;11310;51.528;21.204;2023-03-23T01:09:45;22.10;;;10.70;;
22282;SDS011;11310;51.528;21.204;2023-03-23T01:12:14;20.95;;;10.57;;
22282;SDS011;11310;51.528;21.204;2023-03-23T01:14:43;22.35;;;10.98;;
22282;SDS011;11310;51.528;21.204;2023-03-23T01:17:11;24.50;;;10.88;;
22282;SDS011;11310;51.528;21.204;2023-03-23T01:19:38;22.73;;;10.18;;
22282;SDS011;11310;51.528;21.204;2023-03-23T01:22:06;25.02;;;10.73;;
22282;SDS011;11310;51.528;21.204;2023-03-23T01:24:34;22.30;;;10.57;;
22282;SDS011;11310;51.528;21.204;2023-03-23T01:27:01;22.40;;;10.32;;
22282;SDS011;11310;51.528;21.204;2023-03-23T01:29:32;24.67;;;10.98;;
22282;SDS011;11310;51.528;21.204;2023-03-23T01:32:02;22.55;;;9.85;;
22282;SDS011;11310;51.528;21.204;2023-03-23T01:34:30;20.83;;;10.18;;
22282;SDS011;11310;51.528;21.204;2023-03-23T01:36:57;21.63;;;10.43;;
22282;SDS011;11310;51.528;21.204;2023-03-23T01:39:26;22.58;;;10.95;;
22282;SDS011;11310;51.528;21.204;2023-03-23T01:41:53;26.50;;;11.18;;
22282;SDS011;11310;51.528;21.204;2023-03-23T01:47:28;24.80;;;10.35;;
22282;SDS011;11310;51.528;21.204;2023-03-23T01:49:56;21.88;;;10.90;;
22282;SDS011;11310;51.528;21.204;2023-03-23T01:52:24;23.98;;;10.85;;
22282;SDS011;11310;51.528;21.204;2023-03-23T01:55:01;24.10;;;11.52;;
22282;SDS011;11310;51.528;21.204;2023-03-23T01:57:30;23.35;;;11.05;;
22282;SDS011;11310;51.528;21.204;2023-03-23T02:00:02;22.40;;;10.48;;
22282;SDS011;11310;51.528;21.204;2023-03-23T02:02:41;23.67;;;11.95;;
22282;SDS011;11310;51.528;21.204;2023-03-23T02:05:13;25.25;;;11.98;;
22282;SDS011;11310;51.528;21.204;2023-03-23T02:07:45;23.60;;;11.65;;
22282;SDS011;11310;51.528;21.204;2023-03-23T02:10:14;21.52;;;11.43;;
22282;SDS011;11310;51.528;21.204;2023-03-23T02:12:43;24.67;;;10.50;;
22282;SDS011;11310;51.528;21.204;2023-03-23T02:15:12;25.02;;;11.18;;
22282;SDS011;11310;51.528;21.204;2023-03-23T02:17:45;21.45;;;10.85;;
22282;SDS011;11310;51.528;21.204;2023-03-23T02:20:23;20.98;;;10.82;;
22282;SDS011;11310;51.528;21.204;2023-03-23T02:26:00;23.25;;;10.68;;
22282;SDS011;11310;51.528;21.204;2023-03-23T02:28:46;22.92;;;11.25;;
22282;SDS011;11310;51.528;21.204;2023-03-23T02:31:28;23.02;;;10.98;;
22282;SDS011;11310;51.528;21.204;2023-03-23T02:34:11;19.92;;;10.82;;
22282;SDS011;11310;51.528;21.204;2023-03-23T02:36:45;20.15;;;10.40;;
22282;SDS011;11310;51.528;21.204;2023-03-23T02:39:18;21.17;;;10.98;;
22282;SDS011;11310;51.528;21.204;2023-03-23T02:41:52;24.42;;;11.93;;
22282;SDS011;11310;51.528;21.204;2023-03-23T02:46:53;20.70;;;10.75;;
22282;SDS011;11310;51.528;21.204;2023-03-23T02:49:23;23.65;;;11.38;;
22282;SDS011;11310;51.528;21.204;2023-03-23T02:51:54;30.75;;;14.98;;
22282;SDS011;11310;51.528;21.204;2023-03-23T02:54:25;37.55;;;17.40;;
22282;SDS011;11310;51.528;21.204;2023-03-23T02:56:55;33.33;;;15.90;;
22282;SDS011;11310;51.528;21.204;2023-03-23T02:59:29;33.40;;;16.42;;
22282;SDS011;11310;51.528;21.204;2023-03-23T03:02:00;36.15;;;18.80;;
22282;SDS011;11310;51.528;21.204;2023-03-23T03:04:33;29.70;;;16.02;;
22282;SDS011;11310;51.528;21.204;2023-03-23T03:07:16;25.38;;;14.50;;
22282;SDS011;11310;51.528;21.204;2023-03-23T03:10:09;25.25;;;14.25;;
22282;SDS011;11310;51.528;21.204;2023-03-23T03:12:44;28.35;;;15.88;;
22282;SDS011;11310;51.528;21.204;2023-03-23T03:15:20;26.58;;;13.00;;
22282;SDS011;11310;51.528;21.204;2023-03-23T03:17:55;26.60;;;15.13;;
22282;SDS011;11310;51.528;21.204;2023-03-23T03:20:29;23.52;;;12.57;;
22282;SDS011;11310;51.528;21.204;2023-03-23T03:23:00;23.52;;;13.88;;
22282;SDS011;11310;51.528;21.204;2023-03-23T03:25:30;21.75;;;12.10;;
22282;SDS011;11310;51.528;21.204;2023-03-23T03:27:58;26.67;;;14.68;;
22282;SDS011;11310;51.528;21.204;2023-03-23T03:30:37;23.63;;;13.23;;
22282;SDS011;11310;51.528;21.204;2023-03-23T03:33:05;23.52;;;13.15;;
22282;SDS011;11310;51.528;21.204;2023-03-23T03:35:35;25.45;;;13.48;;
22282;SDS011;11310;51.528;21.204;2023-03-23T03:38:05;22.00;;;12.63;;
22282;SDS011;11310;51.528;21.204;2023-03-23T03:40:33;20.20;;;11.27;;
22282;SDS011;11310;51.528;21.204;2023-03-23T03:43:01;22.17;;;11.43;;
22282;SDS011;11310;51.528;21.204;2023-03-23T03:45:29;21.15;;;12.02;;
22282;SDS011;11310;51.528;21.204;2023-03-23T03:47:57;24.88;;;12.25;;
22282;SDS011;11310;51.528;21.204;2023-03-23T03:50:25;26.42;;;12.82;;
22282;SDS011;11310;51.528;21.204;2023-03-23T03:52:54;20.17;;;11.48;;
22282;SDS011;11310;51.528;21.204;2023-03-23T03:55:22;23.77;;;11.80;;
22282;SDS011;11310;51.528;21.204;2023-03-23T03:57:52;20.05;;;11.75;;
22282;SDS011;11310;51.528;21.204;2023-03-23T04:00:59;22.85;;;11.60;;
22282;SDS011;11310;51.528;21.204;2023-03-23T04:03:33;21.83;;;11.05;;
22282;SDS011;11310;51.528;21.204;2023-03-23T04:06:05;21.40;;;11.85;;
22282;SDS011;11310;51.528;21.204;2023-03-23T04:08:36;21.70;;;11.13;;
22282;SDS011;11310;51.528;21.204;2023-03-23T04:11:04;20.25;;;11.23;;
22282;SDS011;11310;51.528;21.204;2023-03-23T04:13:33;20.20;;;11.10;;
22282;SDS011;11310;51.528;21.204;2023-03-23T04:16:20;24.10;;;11.23;;
22282;SDS011;11310;51.528;21.204;2023-03-23T04:18:48;19.45;;;10.35;;
22282;SDS011;11310;51.528;21.204;2023-03-23T04:21:18;22.13;;;10.63;;
22282;SDS011;11310;51.528;21.204;2023-03-23T04:23:49;19.95;;;10.70;;
22282;SDS011;11310;51.528;21.204;2023-03-23T04:26:16;23.25;;;10.45;;
22282;SDS011;11310;51.528;21.204;2023-03-23T04:28:48;20.60;;;11.57;;
22282;SDS011;11310;51.528;21.204;2023-03-23T04:31:31;21.63;;;10.90;;
22282;SDS011;11310;51.528;21.204;2023-03-23T04:34:16;18.88;;;10.68;;
22282;SDS011;11310;51.528;21.204;2023-03-23T04:36:48;23.85;;;11.38;;
22282;SDS011;11310;51.528;21.204;2023-03-23T04:39:22;22.38;;;11.90;;
22282;SDS011;11310;51.528;21.204;2023-03-23T04:41:52;20.23;;;11.98;;
22282;SDS011;11310;51.528;21.204;2023-03-23T04:44:35;22.40;;;12.85;;
22282;SDS011;11310;51.528;21.204;2023-03-23T04:47:11;21.95;;;12.77;;
22282;SDS011;11310;51.528;21.204;2023-03-23T04:49:46;20.08;;;12.02;;
22282;SDS011;11310;51.528;21.204;2023-03-23T04:52:24;19.42;;;10.88;;
22282;SDS011;11310;51.528;21.204;2023-03-23T04:55:01;19.17;;;10.43;;
22282;SDS011;11310;51.528;21.204;2023-03-23T04:57:29;19.58;;;10.75;;
22282;SDS011;11310;51.528;21.204;2023-03-23T05:00:17;20.13;;;11.48;;
22282;SDS011;11310;51.528;21.204;2023-03-23T05:02:53;23.75;;;11.35;;
22282;SDS011;11310;51.528;21.204;2023-03-23T05:05:25;18.83;;;10.40;;
22282;SDS011;11310;51.528;21.204;2023-03-23T05:07:55;18.25;;;9.07;;
22282;SDS011;11310;51.528;21.204;2023-03-23T05:10:28;16.85;;;9.13;;
22282;SDS011;11310;51.528;21.204;2023-03-23T05:13:02;17.13;;;9.13;;
22282;SDS011;11310;51.528;21.204;2023-03-23T05:15:30;15.13;;;8.52;;
22282;SDS011;11310;51.528;21.204;2023-03-23T05:18:00;17.48;;;9.18;;
22282;SDS011;11310;51.528;21.204;2023-03-23T05:20:30;16.17;;;8.43;;
22282;SDS011;11310;51.528;21.204;2023-03-23T05:23:06;17.33;;;9.02;;
22282;SDS011;11310;51.528;21.204;2023-03-23T05:25:36;20.55;;;9.55;;
22282;SDS011;11310;51.528;21.204;2023-03-23T05:28:19;17.90;;;9.07;;
22282;SDS011;11310;51.528;21.204;2023-03-23T05:30:58;18.38;;;8.68;;
22282;SDS011;11310;51.528;21.204;2023-03-23T05:33:30;16.30;;;8.23;;
22282;SDS011;11310;51.528;21.204;2023-03-23T05:36:19;14.02;;;7.80;;
22282;SDS011;11310;51.528;21.204;2023-03-23T05:39:08;16.23;;;7.65;;
22282;SDS011;11310;51.528;21.204;2023-03-23T05:41:59;15.73;;;7.50;;
22282;SDS011;11310;51.528;21.204;2023-03-23T05:44:38;19.50;;;7.90;;
22282;SDS011;11310;51.528;21.204;2023-03-23T05:47:06;15.50;;;8.27;;
22282;SDS011;11310;51.528;21.204;2023-03-23T05:49:37;17.33;;;8.48;;
22282;SDS011;11310;51.528;21.204;2023-03-23T05:52:08;17.80;;;8.25;;
22282;SDS011;11310;51.528;21.204;2023-03-23T05:54:38;18.30;;;8.23;;
22282;SDS011;11310;51.528;21.204;2023-03-23T05:57:09;15.25;;;8.50;;
22282;SDS011;11310;51.528;21.204;2023-03-23T05:59:43;16.50;;;8.70;;
22282;SDS011;11310;51.528;21.204;2023-03-23T06:02:19;15.85;;;7.88;;
22282;SDS011;11310;51.528;21.204;2023-03-23T06:04:47;18.65;;;7.53;;
22282;SDS011;11310;51.528;21.204;2023-03-23T06:07:24;18.98;;;8.25;;
22282;SDS011;11310;51.528;21.204;2023-03-23T06:09:59;18.05;;;7.47;;
22282;SDS011;11310;51.528;21.204;2023-03-23T06:12:39;20.20;;;8.05;;
22282;SDS011;11310;51.528;21.204;2023-03-23T06:15:07;14.57;;;7.88;;
22282;SDS011;11310;51.528;21.204;2023-03-23T06:17:59;15.88;;;7.70;;
22282;SDS011;11310;51.528;21.204;2023-03-23T06:20:44;14.73;;;7.18;;
22282;SDS011;11310;51.528;21.204;2023-03-23T06:23:22;15.07;;;7.80;;
22282;SDS011;11310;51.528;21.204;2023-03-23T06:25:53;14.13;;;7.38;;
22282;SDS011;11310;51.528;21.204;2023-03-23T06:28:22;16.90;;;7.32;;
22282;SDS011;11310;51.528;21.204;2023-03-23T06:30:50;15.27;;;6.97;;
22282;SDS011;11310;51.528;21.204;2023-03-23T06:33:18;16.05;;;7.43;;
22282;SDS011;11310;51.528;21.204;2023-03-23T06:36:05;16.83;;;7.22;;
22282;SDS011;11310;51.528;21.204;2023-03-23T06:38:48;12.88;;;6.68;;
22282;SDS011;11310;51.528;21.204;2023-03-23T06:41:21;15.43;;;7.35;;
22282;SDS011;11310;51.528;21.204;2023-03-23T06:43:52;14.52;;;7.40;;
22282;SDS011;11310;51.528;21.204;2023-03-23T06:46:26;16.95;;;8.15;;
22282;SDS011;11310;51.528;21.204;2023-03-23T06:49:14;13.73;;;7.18;;
22282;SDS011;11310;51.528;21.204;2023-03-23T06:51:53;14.23;;;6.75;;
22282;SDS011;11310;51.528;21.204;2023-03-23T06:54:24;16.60;;;6.80;;
22282;SDS011;11310;51.528;21.204;2023-03-23T06:56:52;16.67;;;7.80;;
22282;SDS011;11310;51.528;21.204;2023-03-23T06:59:24;13.18;;;6.47;;
22282;SDS011;11310;51.528;21.204;2023-03-23T07:01:51;13.68;;;6.70;;
22282;SDS011;11310;51.528;21.204;2023-03-23T07:04:19;16.77;;;7.60;;
22282;SDS011;11310;51.528;21.204;2023-03-23T07:06:58;15.60;;;7.30;;
22282;SDS011;11310;51.528;21.204;2023-03-23T07:09:26;12.07;;;6.20;;
22282;SDS011;11310;51.528;21.204;2023-03-23T07:11:54;12.77;;;6.43;;
22282;SDS011;11310;51.528;21.204;2023-03-23T07:14:31;14.13;;;6.47;;
22282;SDS011;11310;51.528;21.204;2023-03-23T07:16:59;17.67;;;6.47;;
22282;SDS011;11310;51.528;21.204;2023-03-23T07:19:28;13.07;;;6.10;;
22282;SDS011;11310;51.528;21.204;2023-03-23T07:21:57;12.27;;;6.53;;
22282;SDS011;11310;51.528;21.204;2023-03-23T07:24:25;17.08;;;6.70;;
22282;SDS011;11310;51.528;21.204;2023-03-23T07:27:04;13.68;;;6.82;;
22282;SDS011;11310;51.528;21.204;2023-03-23T07:29:34;15.10;;;6.28;;
22282;SDS011;11310;51.528;21.204;2023-03-23T07:32:13;15.18;;;6.45;;
22282;SDS011;11310;51.528;21.204;2023-03-23T07:34:42;11.88;;;5.78;;
22282;SDS011;11310;51.528;21.204;2023-03-23T07:37:30;15.70;;;6.85;;
22282;SDS011;11310;51.528;21.204;2023-03-23T07:39:58;14.10;;;6.85;;
22282;SDS011;11310;51.528;21.204;2023-03-23T07:42:27;11.00;;;6.32;;
22282;SDS011;11310;51.528;21.204;2023-03-23T07:45:00;14.05;;;6.38;;
22282;SDS011;11310;51.528;21.204;2023-03-23T07:47:28;11.48;;;5.70;;
22282;SDS011;11310;51.528;21.204;2023-03-23T07:49:55;10.18;;;5.25;;
22282;SDS011;11310;51.528;21.204;2023-03-23T07:52:36;11.55;;;5.75;;
22282;SDS011;11310;51.528;21.204;2023-03-23T07:55:06;14.95;;;5.97;;
22282;SDS011;11310;51.528;21.204;2023-03-23T07:57:58;11.15;;;5.60;;
22282;SDS011;11310;51.528;21.204;2023-03-23T08:00:28;14.93;;;6.82;;
22282;SDS011;11310;51.528;21.204;2023-03-23T08:03:04;10.75;;;4.97;;
22282;SDS011;11310;51.528;21.204;2023-03-23T08:08:13;10.23;;;5.13;;
22282;SDS011;11310;51.528;21.204;2023-03-23T08:10:40;10.82;;;5.65;;
22282;SDS011;11310;51.528;21.204;2023-03-23T08:13:38;10.77;;;5.25;;
22282;SDS011;11310;51.528;21.204;2023-03-23T08:16:40;12.27;;;5.82;;
22282;SDS011;11310;51.528;21.204;2023-03-23T08:19:35;12.65;;;5.97;;
22282;SDS011;11310;51.528;21.204;2023-03-23T08:22:31;13.05;;;6.38;;
22282;SDS011;11310;51.528;21.204;2023-03-23T08:25:25;11.52;;;5.43;;
22282;SDS011;11310;51.528;21.204;2023-03-23T08:28:19;11.05;;;5.18;;
22282;SDS011;11310;51.528;21.204;2023-03-23T08:31:06;13.63;;;5.75;;
22282;SDS011;11310;51.528;21.204;2023-03-23T08:33:57;8.57;;;4.45;;
22282;SDS011;11310;51.528;21.204;2023-03-23T08:36:37;12.48;;;5.78;;
22282;SDS011;11310;51.528;21.204;2023-03-23T08:39:23;10.45;;;5.13;;
22282;SDS011;11310;51.528;21.204;2023-03-23T08:42:00;13.02;;;5.05;;
22282;SDS011;11310;51.528;21.204;2023-03-23T08:44:46;10.98;;;5.30;;
22282;SDS011;11310;51.528;21.204;2023-03-23T08:47:32;13.35;;;5.63;;
22282;SDS011;11310;51.528;21.204;2023-03-23T08:50:14;11.70;;;4.47;;
22282;SDS011;11310;51.528;21.204;2023-03-23T08:53:06;10.13;;;4.93;;
22282;SDS011;11310;51.528;21.204;2023-03-23T08:55:54;12.43;;;5.50;;
22282;SDS011;11310;51.528;21.204;2023-03-23T08:58:40;13.00;;;5.22;;
22282;SDS011;11310;51.528;21.204;2023-03-23T09:01:15;10.30;;;4.85;;
22282;SDS011;11310;51.528;21.204;2023-03-23T09:03:43;13.30;;;4.85;;
22282;SDS011;11310;51.528;21.204;2023-03-23T09:06:35;9.40;;;5.07;;
22282;SDS011;11310;51.528;21.204;2023-03-23T09:09:04;11.07;;;5.15;;
22282;SDS011;11310;51.528;21.204;2023-03-23T09:11:33;10.90;;;4.88;;
22282;SDS011;11310;51.528;21.204;2023-03-23T09:14:01;11.75;;;5.47;;
22282;SDS011;11310;51.528;21.204;2023-03-23T09:16:30;10.60;;;4.72;;
22282;SDS011;11310;51.528;21.204;2023-03-23T09:18:58;10.15;;;4.82;;
22282;SDS011;11310;51.528;21.204;2023-03-23T09:21:27;12.15;;;4.97;;
22282;SDS011;11310;51.528;21.204;2023-03-23T09:23:57;10.95;;;4.55;;
22282;SDS011;11310;51.528;21.204;2023-03-23T09:26:27;10.35;;;5.28;;
22282;SDS011;11310;51.528;21.204;2023-03-23T09:28:56;10.48;;;4.93;;
22282;SDS011;11310;51.528;21.204;2023-03-23T09:31:24;13.20;;;5.28;;
22282;SDS011;11310;51.528;21.204;2023-03-23T09:33:53;14.43;;;4.93;;
22282;SDS011;11310;51.528;21.204;2023-03-23T09:36:22;10.82;;;4.60;;
22282;SDS011;11310;51.528;21.204;2023-03-23T09:38:51;9.25;;;4.28;;
22282;SDS011;11310;51.528;21.204;2023-03-23T09:41:28;12.75;;;4.43;;
22282;SDS011;11310;51.528;21.204;2023-03-23T09:44:10;10.02;;;4.32;;
22282;SDS011;11310;51.528;21.204;2023-03-23T09:46:49;10.55;;;4.82;;
22282;SDS011;11310;51.528;21.204;2023-03-23T09:49:27;11.00;;;4.88;;
22282;SDS011;11310;51.528;21.204;2023-03-23T09:52:01;14.80;;;4.30;;
22282;SDS011;11310;51.528;21.204;2023-03-23T09:54:34;8.70;;;4.05;;
22282;SDS011;11310;51.528;21.204;2023-03-23T09:57:10;8.63;;;4.07;;
22282;SDS011;11310;51.528;21.204;2023-03-23T09:59:45;9.45;;;4.07;;
22282;SDS011;11310;51.528;21.204;2023-03-23T10:02:19;8.73;;;3.55;;
22282;SDS011;11310;51.528;21.204;2023-03-23T10:04:54;9.95;;;3.85;;
22282;SDS011;11310;51.528;21.204;2023-03-23T10:07:27;11.55;;;3.90;;
22282;SDS011;11310;51.528;21.204;2023-03-23T10:09:56;10.63;;;3.42;;
22282;SDS011;11310;51.528;21.204;2023-03-23T10:12:31;7.40;;;3.13;;
22282;SDS011;11310;51.528;21.204;2023-03-23T10:15:14;9.85;;;3.83;;
22282;SDS011;11310;51.528;21.204;2023-03-23T10:17:45;6.45;;;2.90;;
22282;SDS011;11310;51.528;21.204;2023-03-23T10:20:21;5.43;;;2.70;;
22282;SDS011;11310;51.528;21.204;2023-03-23T10:22:56;6.18;;;3.05;;
22282;SDS011;11310;51.528;21.204;2023-03-23T10:25:29;7.88;;;3.30;;
22282;SDS011;11310;51.528;21.204;2023-03-23T10:28:02;8.40;;;2.90;;
22282;SDS011;11310;51.528;21.204;2023-03-23T10:30:35;8.10;;;3.47;;
22282;SDS011;11310;51.528;21.204;2023-03-23T10:33:08;6.63;;;3.15;;
22282;SDS011;11310;51.528;21.204;2023-03-23T10:35:42;9.38;;;3.38;;
22282;SDS011;11310;51.528;21.204;2023-03-23T10:38:15;10.80;;;3.33;;
22282;SDS011;11310;51.528;21.204;2023-03-23T10:40:49;8.73;;;2.85;;
22282;SDS011;11310;51.528;21.204;2023-03-23T10:43:21;7.50;;;2.88;;
22282;SDS011;11310;51.528;21.204;2023-03-23T10:45:50;7.22;;;3.00;;
22282;SDS011;11310;51.528;21.204;2023-03-23T10:48:23;9.95;;;3.10;;
22282;SDS011;11310;51.528;21.204;2023-03-23T10:50:55;7.90;;;2.90;;
22282;SDS011;11310;51.528;21.204;2023-03-23T10:53:26;7.15;;;2.80;;
22282;SDS011;11310;51.528;21.204;2023-03-23T10:55:59;8.10;;;3.30;;
22282;SDS011;11310;51.528;21.204;2023-03-23T10:58:29;7.38;;;3.05;;
22282;SDS011;11310;51.528;21.204;2023-03-23T11:00:58;7.07;;;2.90;;
22282;SDS011;11310;51.528;21.204;2023-03-23T11:03:29;7.07;;;3.05;;
22282;SDS011;11310;51.528;21.204;2023-03-23T11:06:06;6.32;;;2.65;;
22282;SDS011;11310;51.528;21.204;2023-03-23T11:08:37;8.23;;;3.40;;
22282;SDS011;11310;51.528;21.204;2023-03-23T11:11:15;7.10;;;3.30;;
22282;SDS011;11310;51.528;21.204;2023-03-23T11:13:46;8.13;;;3.42;;
22282;SDS011;11310;51.528;21.204;2023-03-23T11:16:24;7.30;;;2.65;;
22282;SDS011;11310;51.528;21.204;2023-03-23T11:18:54;6.60;;;2.95;;
22282;SDS011;11310;51.528;21.204;2023-03-23T11:21:22;7.00;;;2.80;;
22282;SDS011;11310;51.528;21.204;2023-03-23T11:23:53;4.97;;;2.60;;
22282;SDS011;11310;51.528;21.204;2023-03-23T11:26:24;6.03;;;2.85;;
22282;SDS011;11310;51.528;21.204;2023-03-23T11:28:57;7.47;;;2.85;;
22282;SDS011;11310;51.528;21.204;2023-03-23T11:31:27;5.30;;;2.50;;
22282;SDS011;11310;51.528;21.204;2023-03-23T11:33:58;5.20;;;2.63;;
22282;SDS011;11310;51.528;21.204;2023-03-23T11:36:30;7.38;;;2.58;;
22282;SDS011;11310;51.528;21.204;2023-03-23T11:39:02;5.88;;;2.55;;
22282;SDS011;11310;51.528;21.204;2023-03-23T11:41:32;5.90;;;2.55;;
22282;SDS011;11310;51.528;21.204;2023-03-23T11:44:08;6.13;;;2.42;;
22282;SDS011;11310;51.528;21.204;2023-03-23T11:46:39;5.45;;;2.35;;
22282;SDS011;11310;51.528;21.204;2023-03-23T11:49:15;8.15;;;2.83;;
22282;SDS011;11310;51.528;21.204;2023-03-23T11:51:53;6.10;;;2.65;;
22282;SDS011;11310;51.528;21.204;2023-03-23T11:54:28;6.50;;;2.50;;
22282;SDS011;11310;51.528;21.204;2023-03-23T11:56:59;5.90;;;2.53;;
22282;SDS011;11310;51.528;21.204;2023-03-23T11:59:29;6.78;;;2.55;;
22282;SDS011;11310;51.528;21.204;2023-03-23T12:02:02;5.13;;;2.08;;
22282;SDS011;11310;51.528;21.204;2023-03-23T12:04:48;5.47;;;2.17;;
22282;SDS011;11310;51.528;21.204;2023-03-23T12:07:28;3.95;;;2.10;;
22282;SDS011;11310;51.528;21.204;2023-03-23T12:10:09;4.18;;;2.10;;
22282;SDS011;11310;51.528;21.204;2023-03-23T12:12:47;5.65;;;2.33;;
22282;SDS011;11310;51.528;21.204;2023-03-23T12:15:22;4.05;;;2.03;;
22282;SDS011;11310;51.528;21.204;2023-03-23T12:17:56;4.53;;;2.20;;
22282;SDS011;11310;51.528;21.204;2023-03-23T12:20:32;6.45;;;2.20;;
22282;SDS011;11310;51.528;21.204;2023-03-23T12:23:13;4.53;;;2.05;;
22282;SDS011;11310;51.528;21.204;2023-03-23T12:26:01;3.08;;;1.58;;
22282;SDS011;11310;51.528;21.204;2023-03-23T12:31:52;5.32;;;2.17;;
22282;SDS011;11310;51.528;21.204;2023-03-23T12:34:32;5.35;;;2.08;;
22282;SDS011;11310;51.528;21.204;2023-03-23T12:37:13;4.72;;;2.10;;
22282;SDS011;11310;51.528;21.204;2023-03-23T12:43:01;5.05;;;2.13;;
22282;SDS011;11310;51.528;21.204;2023-03-23T12:45:55;5.40;;;2.00;;
22282;SDS011;11310;51.528;21.204;2023-03-23T12:48:33;5.25;;;1.95;;
22282;SDS011;11310;51.528;21.204;2023-03-23T12:51:11;5.13;;;2.25;;
22282;SDS011;11310;51.528;21.204;2023-03-23T12:53:46;3.83;;;1.73;;
22282;SDS011;11310;51.528;21.204;2023-03-23T12:56:22;5.57;;;2.33;;
22282;SDS011;11310;51.528;21.204;2023-03-23T12:58:56;2.58;;;1.60;;
22282;SDS011;11310;51.528;21.204;2023-03-23T13:01:29;4.80;;;2.10;;
22282;SDS011;11310;51.528;21.204;2023-03-23T13:04:02;5.22;;;2.03;;
22282;SDS011;11310;51.528;21.204;2023-03-23T13:06:35;3.58;;;1.90;;
22282;SDS011;11310;51.528;21.204;2023-03-23T13:09:05;4.40;;;2.03;;
22282;SDS011;11310;51.528;21.204;2023-03-23T13:11:40;4.43;;;2.20;;
22282;SDS011;11310;51.528;21.204;2023-03-23T13:14:12;5.65;;;2.25;;
22282;SDS011;11310;51.528;21.204;2023-03-23T13:16:52;4.38;;;2.20;;
22282;SDS011;11310;51.528;21.204;2023-03-23T13:19:29;5.32;;;2.10;;
22282;SDS011;11310;51.528;21.204;2023-03-23T13:22:03;8.32;;;2.30;;
22282;SDS011;11310;51.528;21.204;2023-03-23T13:24:36;5.10;;;2.33;;
22282;SDS011;11310;51.528;21.204;2023-03-23T13:27:08;6.00;;;2.05;;
22282;SDS011;11310;51.528;21.204;2023-03-23T13:29:43;4.80;;;2.00;;
22282;SDS011;11310;51.528;21.204;2023-03-23T13:32:12;6.82;;;1.92;;
22282;SDS011;11310;51.528;21.204;2023-03-23T13:34:45;7.80;;;2.80;;
22282;SDS011;11310;51.528;21.204;2023-03-23T13:37:22;5.10;;;1.92;;
22282;SDS011;11310;51.528;21.204;2023-03-23T13:39:52;4.97;;;2.30;;
22282;SDS011;11310;51.528;21.204;2023-03-23T13:42:22;4.75;;;2.08;;
22282;SDS011;11310;51.528;21.204;2023-03-23T13:44:55;7.40;;;2.50;;
22282;SDS011;11310;51.528;21.204;2023-03-23T13:47:36;4.20;;;2.00;;
22282;SDS011;11310;51.528;21.204;2023-03-23T13:50:11;5.03;;;2.38;;
22282;SDS011;11310;51.528;21.204;2023-03-23T13:52:53;5.30;;;2.28;;
22282;SDS011;11310;51.528;21.204;2023-03-23T13:55:29;8.00;;;2.70;;
22282;SDS011;11310;51.528;21.204;2023-03-23T13:58:20;6.03;;;2.50;;
22282;SDS011;11310;51.528;21.204;2023-03-23T14:01:01;5.57;;;2.05;;
22282;SDS011;11310;51.528;21.204;2023-03-23T14:03:38;4.22;;;2.20;;
22282;SDS011;11310;51.528;21.204;2023-03-23T14:06:14;6.93;;;2.40;;
22282;SDS011;11310;51.528;21.204;2023-03-23T14:09:04;5.43;;;2.25;;
22282;SDS011;11310;51.528;21.204;2023-03-23T14:11:45;4.88;;;2.15;;
22282;SDS011;11310;51.528;21.204;2023-03-23T14:14:20;5.07;;;2.05;;
22282;SDS011;11310;51.528;21.204;2023-03-23T14:16:51;6.75;;;2.50;;
22282;SDS011;11310;51.528;21.204;2023-03-23T14:19:21;5.68;;;2.03;;
22282;SDS011;11310;51.528;21.204;2023-03-23T14:21:53;5.85;;;2.60;;
22282;SDS011;11310;51.528;21.204;2023-03-23T14:26:51;8.73;;;2.20;;
22282;SDS011;11310;51.528;21.204;2023-03-23T14:29:20;2.90;;;1.58;;
22282;SDS011;11310;51.528;21.204;2023-03-23T14:31:54;5.38;;;1.58;;
22282;SDS011;11310;51.528;21.204;2023-03-23T14:34:25;3.90;;;2.22;;
22282;SDS011;11310;51.528;21.204;2023-03-23T14:36:56;8.73;;;2.10;;
22282;SDS011;11310;51.528;21.204;2023-03-23T14:39:26;6.80;;;1.80;;
22282;SDS011;11310;51.528;21.204;2023-03-23T14:41:55;4.75;;;1.92;;
22282;SDS011;11310;51.528;21.204;2023-03-23T14:44:31;3.33;;;2.00;;
22282;SDS011;11310;51.528;21.204;2023-03-23T14:47:02;3.17;;;1.90;;
22282;SDS011;11310;51.528;21.204;2023-03-23T14:49:34;5.13;;;2.17;;
22282;SDS011;11310;51.528;21.204;2023-03-23T14:52:09;4.70;;;2.17;;
22282;SDS011;11310;51.528;21.204;2023-03-23T14:54:39;5.13;;;2.30;;
22282;SDS011;11310;51.528;21.204;2023-03-23T14:57:10;7.32;;;2.38;;
22282;SDS011;11310;51.528;21.204;2023-03-23T14:59:40;6.50;;;2.25;;
22282;SDS011;11310;51.528;21.204;2023-03-23T15:02:12;6.15;;;2.50;;
22282;SDS011;11310;51.528;21.204;2023-03-23T15:04:42;4.53;;;2.15;;
22282;SDS011;11310;51.528;21.204;2023-03-23T15:07:14;5.68;;;2.70;;
22282;SDS011;11310;51.528;21.204;2023-03-23T15:09:44;3.88;;;2.13;;
22282;SDS011;11310;51.528;21.204;2023-03-23T15:12:18;6.18;;;2.25;;
22282;SDS011;11310;51.528;21.204;2023-03-23T15:14:50;4.68;;;2.20;;
22282;SDS011;11310;51.528;21.204;2023-03-23T15:17:21;5.82;;;2.17;;
22282;SDS011;11310;51.528;21.204;2023-03-23T15:19:51;9.80;;;2.05;;